sensor_id;sensor_type;location;lat;lon;timestamp;P1;durP1;ratioP1;P2;durP2;ratioP2
13866;SDS011;7003;46.982;15.248;2023-03-17T00:01:47;1.70;;;1.43;;
13866;SDS011;7003;46.982;15.248;2023-03-17T00:04:21;1.43;;;1.33;;
13866;SDS011;7003;46.982;15.248;2023-03-17T00:06:53;1.80;;;0.87;;
13866;SDS011;7003;46.982;15.248;2023-03-17T00:09:21;2.03;;;1.60;;
13866;SDS011;7003;46.982;15.248;2023-03-17T00:11:49;4.07;;;1.73;;
13866;SDS011;7003;46.982;15.248;2023-03-17T00:14:18;4.47;;;2.00;;
13866;SDS011;7003;46.982;15.248;2023-03-17T00:16:46;1.90;;;0.70;;
13866;SDS011;7003;46.982;15.248;2023-03-17T00:19:15;1.60;;;1.37;;
13866;SDS011;7003;46.982;15.248;2023-03-17T00:21:43;3.40;;;2.13;;
13866;SDS011;7003;46.982;15.248;2023-03-17T00:24:12;1.27;;;1.10;;
13866;SDS011;7003;46.982;15.248;2023-03-17T00:26:40;4.77;;;0.73;;
13866;SDS011;7003;46.982;15.248;2023-03-17T00:29:10;1.30;;;0.80;;
13866;SDS011;7003;46.982;15.248;2023-03-17T00:31:37;1.53;;;1.43;;
13866;SDS011;7003;46.982;15.248;2023-03-17T00:34:08;1.67;;;1.40;;
13866;SDS011;7003;46.982;15.248;2023-03-17T00:36:37;1.00;;;0.90;;
13866;SDS011;7003;46.982;15.248;2023-03-17T00:39:05;3.37;;;2.07;;
13866;SDS011;7003;46.982;15.248;2023-03-17T00:41:43;1.00;;;1.00;;
13866;SDS011;7003;46.982;15.248;2023-03-17T00:44:10;2.60;;;2.40;;
13866;SDS011;7003;46.982;15.248;2023-03-17T00:46:37;1.53;;;1.27;;
13866;SDS011;7003;46.982;15.248;2023-03-17T00:49:09;3.67;;;1.30;;
13866;SDS011;7003;46.982;15.248;2023-03-17T00:51:41;2.30;;;1.27;;
13866;SDS011;7003;46.982;15.248;2023-03-17T00:54:08;1.87;;;1.70;;
13866;SDS011;7003;46.982;15.248;2023-03-17T00:56:40;3.30;;;1.60;;
13866;SDS011;7003;46.982;15.248;2023-03-17T00:59:14;2.80;;;2.13;;
13866;SDS011;7003;46.982;15.248;2023-03-17T01:01:46;1.83;;;1.27;;
13866;SDS011;7003;46.982;15.248;2023-03-17T01:04:16;0.90;;;0.90;;
13866;SDS011;7003;46.982;15.248;2023-03-17T01:06:43;0.80;;;0.70;;
13866;SDS011;7003;46.982;15.248;2023-03-17T01:09:11;1.27;;;1.20;;
13866;SDS011;7003;46.982;15.248;2023-03-17T01:11:41;3.13;;;1.77;;
13866;SDS011;7003;46.982;15.248;2023-03-17T01:14:11;2.50;;;1.50;;
13866;SDS011;7003;46.982;15.248;2023-03-17T01:16:42;7.40;;;2.57;;
13866;SDS011;7003;46.982;15.248;2023-03-17T01:19:10;0.77;;;0.73;;
13866;SDS011;7003;46.982;15.248;2023-03-17T01:21:38;1.60;;;1.50;;
13866;SDS011;7003;46.982;15.248;2023-03-17T01:24:06;0.80;;;0.80;;
13866;SDS011;7003;46.982;15.248;2023-03-17T01:26:34;1.03;;;0.83;;
13866;SDS011;7003;46.982;15.248;2023-03-17T01:29:05;1.73;;;0.70;;
13866;SDS011;7003;46.982;15.248;2023-03-17T01:31:35;3.40;;;1.70;;
13866;SDS011;7003;46.982;15.248;2023-03-17T01:34:03;1.30;;;1.20;;
13866;SDS011;7003;46.982;15.248;2023-03-17T01:36:32;1.83;;;1.73;;
13866;SDS011;7003;46.982;15.248;2023-03-17T01:39:00;1.37;;;1.20;;
13866;SDS011;7003;46.982;15.248;2023-03-17T01:41:31;4.20;;;1.80;;
13866;SDS011;7003;46.982;15.248;2023-03-17T01:44:01;1.43;;;1.33;;
13866;SDS011;7003;46.982;15.248;2023-03-17T01:46:30;1.60;;;1.27;;
13866;SDS011;7003;46.982;15.248;2023-03-17T01:49:05;2.20;;;1.90;;
13866;SDS011;7003;46.982;15.248;2023-03-17T01:51:38;2.60;;;1.47;;
13866;SDS011;7003;46.982;15.248;2023-03-17T01:54:13;2.30;;;1.50;;
13866;SDS011;7003;46.982;15.248;2023-03-17T01:56:44;2.87;;;1.50;;
13866;SDS011;7003;46.982;15.248;2023-03-17T01:59:18;1.47;;;1.37;;
13866;SDS011;7003;46.982;15.248;2023-03-17T02:01:53;1.63;;;1.53;;
13866;SDS011;7003;46.982;15.248;2023-03-17T02:04:24;1.63;;;1.03;;
13866;SDS011;7003;46.982;15.248;2023-03-17T02:06:52;1.80;;;1.10;;
13866;SDS011;7003;46.982;15.248;2023-03-17T02:09:19;1.07;;;1.00;;
13866;SDS011;7003;46.982;15.248;2023-03-17T02:11:46;4.10;;;2.00;;
13866;SDS011;7003;46.982;15.248;2023-03-17T02:14:15;1.20;;;1.10;;
13866;SDS011;7003;46.982;15.248;2023-03-17T02:16:43;3.50;;;2.00;;
13866;SDS011;7003;46.982;15.248;2023-03-17T02:19:12;1.23;;;1.03;;
13866;SDS011;7003;46.982;15.248;2023-03-17T02:21:41;0.97;;;0.90;;
13866;SDS011;7003;46.982;15.248;2023-03-17T02:24:18;1.10;;;1.00;;
13866;SDS011;7003;46.982;15.248;2023-03-17T02:26:53;1.17;;;1.10;;
13866;SDS011;7003;46.982;15.248;2023-03-17T02:29:23;2.40;;;1.60;;
13866;SDS011;7003;46.982;15.248;2023-03-17T02:31:54;0.73;;;0.63;;
13866;SDS011;7003;46.982;15.248;2023-03-17T02:34:21;1.27;;;0.90;;
13866;SDS011;7003;46.982;15.248;2023-03-17T02:36:49;1.90;;;1.63;;
13866;SDS011;7003;46.982;15.248;2023-03-17T02:39:17;4.03;;;0.90;;
13866;SDS011;7003;46.982;15.248;2023-03-17T02:41:45;2.03;;;1.83;;
13866;SDS011;7003;46.982;15.248;2023-03-17T02:44:12;1.87;;;1.57;;
13866;SDS011;7003;46.982;15.248;2023-03-17T02:46:39;1.10;;;1.03;;
13866;SDS011;7003;46.982;15.248;2023-03-17T02:49:06;1.60;;;1.50;;
13866;SDS011;7003;46.982;15.248;2023-03-17T02:51:34;0.37;;;0.37;;
13866;SDS011;7003;46.982;15.248;2023-03-17T02:54:03;0.70;;;0.70;;
13866;SDS011;7003;46.982;15.248;2023-03-17T02:56:30;1.70;;;1.33;;
13866;SDS011;7003;46.982;15.248;2023-03-17T02:58:59;1.27;;;1.17;;
13866;SDS011;7003;46.982;15.248;2023-03-17T03:01:29;2.83;;;0.87;;
13866;SDS011;7003;46.982;15.248;2023-03-17T03:03:56;1.70;;;1.43;;
13866;SDS011;7003;46.982;15.248;2023-03-17T03:06:24;1.30;;;1.07;;
13866;SDS011;7003;46.982;15.248;2023-03-17T03:08:54;1.37;;;1.27;;
13866;SDS011;7003;46.982;15.248;2023-03-17T03:11:23;1.10;;;1.10;;
13866;SDS011;7003;46.982;15.248;2023-03-17T03:13:53;1.90;;;1.40;;
13866;SDS011;7003;46.982;15.248;2023-03-17T03:16:23;2.40;;;1.70;;
13866;SDS011;7003;46.982;15.248;2023-03-17T03:18:51;0.70;;;0.70;;
13866;SDS011;7003;46.982;15.248;2023-03-17T03:21:21;1.40;;;1.30;;
13866;SDS011;7003;46.982;15.248;2023-03-17T03:23:49;0.97;;;0.93;;
13866;SDS011;7003;46.982;15.248;2023-03-17T03:26:16;6.20;;;1.43;;
13866;SDS011;7003;46.982;15.248;2023-03-17T03:28:45;1.00;;;0.90;;
13866;SDS011;7003;46.982;15.248;2023-03-17T03:31:15;3.33;;;2.07;;
13866;SDS011;7003;46.982;15.248;2023-03-17T03:33:43;1.30;;;1.30;;
13866;SDS011;7003;46.982;15.248;2023-03-17T03:36:10;0.83;;;0.83;;
13866;SDS011;7003;46.982;15.248;2023-03-17T03:38:40;3.43;;;1.20;;
13866;SDS011;7003;46.982;15.248;2023-03-17T03:41:07;1.50;;;1.00;;
13866;SDS011;7003;46.982;15.248;2023-03-17T03:43:34;1.50;;;1.40;;
13866;SDS011;7003;46.982;15.248;2023-03-17T03:46:03;1.00;;;1.00;;
13866;SDS011;7003;46.982;15.248;2023-03-17T03:48:33;2.67;;;1.33;;
13866;SDS011;7003;46.982;15.248;2023-03-17T03:51:02;0.93;;;0.93;;
13866;SDS011;7003;46.982;15.248;2023-03-17T03:53:32;1.73;;;1.20;;
13866;SDS011;7003;46.982;15.248;2023-03-17T03:56:01;1.33;;;1.23;;
13866;SDS011;7003;46.982;15.248;2023-03-17T03:58:28;0.77;;;0.77;;
13866;SDS011;7003;46.982;15.248;2023-03-17T04:00:55;1.87;;;1.60;;
13866;SDS011;7003;46.982;15.248;2023-03-17T04:03:24;0.73;;;0.73;;
13866;SDS011;7003;46.982;15.248;2023-03-17T04:05:54;3.07;;;2.00;;
13866;SDS011;7003;46.982;15.248;2023-03-17T04:08:32;1.50;;;1.10;;
13866;SDS011;7003;46.982;15.248;2023-03-17T04:11:01;5.60;;;1.57;;
13866;SDS011;7003;46.982;15.248;2023-03-17T04:13:31;2.77;;;2.53;;
13866;SDS011;7003;46.982;15.248;2023-03-17T04:16:17;1.20;;;1.10;;
13866;SDS011;7003;46.982;15.248;2023-03-17T04:18:49;2.47;;;1.90;;
13866;SDS011;7003;46.982;15.248;2023-03-17T04:21:17;0.67;;;0.67;;
13866;SDS011;7003;46.982;15.248;2023-03-17T04:23:46;1.10;;;1.00;;
13866;SDS011;7003;46.982;15.248;2023-03-17T04:26:14;1.30;;;1.20;;
13866;SDS011;7003;46.982;15.248;2023-03-17T04:28:48;0.63;;;0.63;;
13866;SDS011;7003;46.982;15.248;2023-03-17T04:31:18;1.40;;;0.90;;
13866;SDS011;7003;46.982;15.248;2023-03-17T04:33:46;1.53;;;1.43;;
13866;SDS011;7003;46.982;15.248;2023-03-17T04:36:17;4.73;;;1.47;;
13866;SDS011;7003;46.982;15.248;2023-03-17T04:38:45;2.23;;;1.50;;
13866;SDS011;7003;46.982;15.248;2023-03-17T04:41:23;0.93;;;0.93;;
13866;SDS011;7003;46.982;15.248;2023-03-17T04:43:53;1.10;;;1.00;;
13866;SDS011;7003;46.982;15.248;2023-03-17T04:46:24;0.67;;;0.67;;
13866;SDS011;7003;46.982;15.248;2023-03-17T04:48:52;1.60;;;1.17;;
13866;SDS011;7003;46.982;15.248;2023-03-17T04:51:20;0.83;;;0.83;;
13866;SDS011;7003;46.982;15.248;2023-03-17T04:53:55;1.33;;;1.23;;
13866;SDS011;7003;46.982;15.248;2023-03-17T04:56:26;0.73;;;0.73;;
13866;SDS011;7003;46.982;15.248;2023-03-17T04:58:57;2.17;;;1.33;;
13866;SDS011;7003;46.982;15.248;2023-03-17T05:01:25;1.50;;;1.40;;
13866;SDS011;7003;46.982;15.248;2023-03-17T05:03:54;1.07;;;0.93;;
13866;SDS011;7003;46.982;15.248;2023-03-17T05:06:24;2.33;;;1.67;;
13866;SDS011;7003;46.982;15.248;2023-03-17T05:08:53;1.50;;;1.33;;
13866;SDS011;7003;46.982;15.248;2023-03-17T05:11:23;3.67;;;1.70;;
13866;SDS011;7003;46.982;15.248;2023-03-17T05:13:53;1.80;;;1.67;;
13866;SDS011;7003;46.982;15.248;2023-03-17T05:16:27;6.50;;;2.30;;
13866;SDS011;7003;46.982;15.248;2023-03-17T05:18:57;1.30;;;1.17;;
13866;SDS011;7003;46.982;15.248;2023-03-17T05:21:32;1.57;;;1.47;;
13866;SDS011;7003;46.982;15.248;2023-03-17T05:24:02;2.03;;;1.83;;
13866;SDS011;7003;46.982;15.248;2023-03-17T05:26:31;2.30;;;2.10;;
13866;SDS011;7003;46.982;15.248;2023-03-17T05:29:03;1.13;;;0.90;;
13866;SDS011;7003;46.982;15.248;2023-03-17T05:31:33;1.13;;;0.83;;
13866;SDS011;7003;46.982;15.248;2023-03-17T05:34:03;3.07;;;2.17;;
13866;SDS011;7003;46.982;15.248;2023-03-17T05:36:35;3.13;;;1.50;;
13866;SDS011;7003;46.982;15.248;2023-03-17T05:39:06;1.23;;;1.13;;
13866;SDS011;7003;46.982;15.248;2023-03-17T05:41:36;1.67;;;1.57;;
13866;SDS011;7003;46.982;15.248;2023-03-17T05:44:06;1.47;;;1.37;;
13866;SDS011;7003;46.982;15.248;2023-03-17T05:46:35;1.27;;;1.17;;
13866;SDS011;7003;46.982;15.248;2023-03-17T05:49:04;0.90;;;0.90;;
13866;SDS011;7003;46.982;15.248;2023-03-17T05:51:41;3.63;;;1.87;;
13866;SDS011;7003;46.982;15.248;2023-03-17T05:54:10;2.33;;;1.83;;
13866;SDS011;7003;46.982;15.248;2023-03-17T05:56:39;1.77;;;1.40;;
13866;SDS011;7003;46.982;15.248;2023-03-17T05:59:08;3.23;;;1.50;;
13866;SDS011;7003;46.982;15.248;2023-03-17T06:01:40;2.53;;;2.33;;
13866;SDS011;7003;46.982;15.248;2023-03-17T06:04:13;2.87;;;2.17;;
13866;SDS011;7003;46.982;15.248;2023-03-17T06:06:44;17.23;;;2.53;;
13866;SDS011;7003;46.982;15.248;2023-03-17T06:09:17;3.10;;;2.20;;
13866;SDS011;7003;46.982;15.248;2023-03-17T06:11:46;2.60;;;2.40;;
13866;SDS011;7003;46.982;15.248;2023-03-17T06:14:16;12.27;;;2.53;;
13866;SDS011;7003;46.982;15.248;2023-03-17T06:16:46;1.13;;;1.03;;
13866;SDS011;7003;46.982;15.248;2023-03-17T06:19:19;10.67;;;4.77;;
13866;SDS011;7003;46.982;15.248;2023-03-17T06:21:50;16.40;;;3.57;;
13866;SDS011;7003;46.982;15.248;2023-03-17T06:24:19;11.73;;;2.90;;
13866;SDS011;7003;46.982;15.248;2023-03-17T06:26:48;14.10;;;3.03;;
13866;SDS011;7003;46.982;15.248;2023-03-17T06:29:21;2.43;;;2.23;;
13866;SDS011;7003;46.982;15.248;2023-03-17T06:31:51;2.87;;;1.90;;
13866;SDS011;7003;46.982;15.248;2023-03-17T06:34:20;1.53;;;1.20;;
13866;SDS011;7003;46.982;15.248;2023-03-17T06:36:53;3.77;;;1.80;;
13866;SDS011;7003;46.982;15.248;2023-03-17T06:39:26;2.67;;;1.53;;
13866;SDS011;7003;46.982;15.248;2023-03-17T06:41:59;3.27;;;1.77;;
13866;SDS011;7003;46.982;15.248;2023-03-17T06:44:28;2.37;;;2.17;;
13866;SDS011;7003;46.982;15.248;2023-03-17T06:46:59;4.57;;;2.50;;
13866;SDS011;7003;46.982;15.248;2023-03-17T06:49:29;4.37;;;1.67;;
13866;SDS011;7003;46.982;15.248;2023-03-17T06:52:02;5.07;;;2.50;;
13866;SDS011;7003;46.982;15.248;2023-03-17T06:54:34;1.47;;;1.20;;
13866;SDS011;7003;46.982;15.248;2023-03-17T06:57:05;3.30;;;1.63;;
13866;SDS011;7003;46.982;15.248;2023-03-17T06:59:35;2.43;;;2.23;;
13866;SDS011;7003;46.982;15.248;2023-03-17T07:02:05;1.27;;;1.17;;
13866;SDS011;7003;46.982;15.248;2023-03-17T07:04:36;1.33;;;1.23;;
13866;SDS011;7003;46.982;15.248;2023-03-17T07:07:08;2.33;;;2.20;;
13866;SDS011;7003;46.982;15.248;2023-03-17T07:09:38;1.50;;;1.43;;
13866;SDS011;7003;46.982;15.248;2023-03-17T07:12:09;4.47;;;2.43;;
13866;SDS011;7003;46.982;15.248;2023-03-17T07:14:38;3.33;;;1.77;;
13866;SDS011;7003;46.982;15.248;2023-03-17T07:17:06;3.80;;;2.57;;
13866;SDS011;7003;46.982;15.248;2023-03-17T07:19:40;5.90;;;2.23;;
13866;SDS011;7003;46.982;15.248;2023-03-17T07:22:10;1.47;;;1.37;;
13866;SDS011;7003;46.982;15.248;2023-03-17T07:24:42;2.77;;;1.73;;
13866;SDS011;7003;46.982;15.248;2023-03-17T07:27:11;3.70;;;1.67;;
13866;SDS011;7003;46.982;15.248;2023-03-17T07:29:39;3.20;;;1.93;;
13866;SDS011;7003;46.982;15.248;2023-03-17T07:32:10;3.60;;;2.00;;
13866;SDS011;7003;46.982;15.248;2023-03-17T07:34:38;2.17;;;2.00;;
13866;SDS011;7003;46.982;15.248;2023-03-17T07:37:06;2.40;;;1.47;;
13866;SDS011;7003;46.982;15.248;2023-03-17T07:39:37;2.73;;;1.80;;
13866;SDS011;7003;46.982;15.248;2023-03-17T07:42:05;3.30;;;2.37;;
13866;SDS011;7003;46.982;15.248;2023-03-17T07:44:34;4.80;;;1.87;;
13866;SDS011;7003;46.982;15.248;2023-03-17T07:47:04;2.73;;;2.00;;
13866;SDS011;7003;46.982;15.248;2023-03-17T07:49:35;2.77;;;2.53;;
13866;SDS011;7003;46.982;15.248;2023-03-17T07:52:03;3.40;;;2.43;;
13866;SDS011;7003;46.982;15.248;2023-03-17T07:54:34;3.17;;;2.20;;
13866;SDS011;7003;46.982;15.248;2023-03-17T07:57:05;4.33;;;2.90;;
13866;SDS011;7003;46.982;15.248;2023-03-17T07:59:33;2.03;;;1.53;;
13866;SDS011;7003;46.982;15.248;2023-03-17T08:02:05;2.37;;;1.67;;
13866;SDS011;7003;46.982;15.248;2023-03-17T08:04:33;2.90;;;2.30;;
13866;SDS011;7003;46.982;15.248;2023-03-17T08:07:02;3.07;;;1.93;;
13866;SDS011;7003;46.982;15.248;2023-03-17T08:09:31;2.40;;;2.13;;
13866;SDS011;7003;46.982;15.248;2023-03-17T08:12:01;2.23;;;2.03;;
13866;SDS011;7003;46.982;15.248;2023-03-17T08:14:29;2.60;;;2.40;;
13866;SDS011;7003;46.982;15.248;2023-03-17T08:16:57;1.80;;;1.60;;
13866;SDS011;7003;46.982;15.248;2023-03-17T08:19:25;7.90;;;3.83;;
13866;SDS011;7003;46.982;15.248;2023-03-17T08:21:53;4.27;;;2.87;;
13866;SDS011;7003;46.982;15.248;2023-03-17T08:24:24;3.20;;;2.53;;
13866;SDS011;7003;46.982;15.248;2023-03-17T08:26:52;2.63;;;2.33;;
13866;SDS011;7003;46.982;15.248;2023-03-17T08:29:21;5.13;;;2.90;;
13866;SDS011;7003;46.982;15.248;2023-03-17T08:31:49;5.67;;;2.70;;
13866;SDS011;7003;46.982;15.248;2023-03-17T08:34:18;4.13;;;2.23;;
13866;SDS011;7003;46.982;15.248;2023-03-17T08:36:45;3.23;;;2.83;;
13866;SDS011;7003;46.982;15.248;2023-03-17T08:39:16;5.47;;;2.77;;
13866;SDS011;7003;46.982;15.248;2023-03-17T08:41:44;7.47;;;3.63;;
13866;SDS011;7003;46.982;15.248;2023-03-17T08:44:15;5.43;;;3.43;;
13866;SDS011;7003;46.982;15.248;2023-03-17T08:46:46;5.45;;;3.30;;
13866;SDS011;7003;46.982;15.248;2023-03-17T08:49:14;4.88;;;2.83;;
13866;SDS011;7003;46.982;15.248;2023-03-17T08:51:44;9.90;;;4.22;;
13866;SDS011;7003;46.982;15.248;2023-03-17T08:54:15;3.38;;;3.03;;
13866;SDS011;7003;46.982;15.248;2023-03-17T08:56:43;3.53;;;2.80;;
13866;SDS011;7003;46.982;15.248;2023-03-17T08:59:11;3.35;;;2.78;;
13866;SDS011;7003;46.982;15.248;2023-03-17T09:01:41;4.63;;;2.90;;
13866;SDS011;7003;46.982;15.248;2023-03-17T09:04:11;5.57;;;3.60;;
13866;SDS011;7003;46.982;15.248;2023-03-17T09:06:42;3.35;;;2.75;;
13866;SDS011;7003;46.982;15.248;2023-03-17T09:09:10;4.95;;;4.07;;
13866;SDS011;7003;46.982;15.248;2023-03-17T09:11:38;4.93;;;3.38;;
13866;SDS011;7003;46.982;15.248;2023-03-17T09:14:06;6.63;;;3.10;;
13866;SDS011;7003;46.982;15.248;2023-03-17T09:16:34;4.35;;;3.65;;
13866;SDS011;7003;46.982;15.248;2023-03-17T09:19:04;6.00;;;4.03;;
13866;SDS011;7003;46.982;15.248;2023-03-17T09:21:33;4.25;;;3.75;;
13866;SDS011;7003;46.982;15.248;2023-03-17T09:24:01;4.63;;;4.22;;
13866;SDS011;7003;46.982;15.248;2023-03-17T09:26:29;8.65;;;3.75;;
13866;SDS011;7003;46.982;15.248;2023-03-17T09:28:59;7.97;;;4.40;;
13866;SDS011;7003;46.982;15.248;2023-03-17T09:31:30;4.53;;;3.08;;
13866;SDS011;7003;46.982;15.248;2023-03-17T09:34:01;4.55;;;3.72;;
13866;SDS011;7003;46.982;15.248;2023-03-17T09:36:33;8.50;;;3.92;;
13866;SDS011;7003;46.982;15.248;2023-03-17T09:39:01;6.70;;;3.53;;
13866;SDS011;7003;46.982;15.248;2023-03-17T09:41:51;5.15;;;4.47;;
13866;SDS011;7003;46.982;15.248;2023-03-17T09:44:31;4.28;;;2.95;;
13866;SDS011;7003;46.982;15.248;2023-03-17T09:47:08;3.00;;;2.70;;
13866;SDS011;7003;46.982;15.248;2023-03-17T09:49:46;3.22;;;2.88;;
13866;SDS011;7003;46.982;15.248;2023-03-17T09:52:21;4.47;;;3.53;;
13866;SDS011;7003;46.982;15.248;2023-03-17T09:54:56;5.60;;;3.50;;
13866;SDS011;7003;46.982;15.248;2023-03-17T09:57:28;4.00;;;3.55;;
13866;SDS011;7003;46.982;15.248;2023-03-17T09:59:58;4.32;;;3.22;;
13866;SDS011;7003;46.982;15.248;2023-03-17T10:02:35;4.65;;;3.10;;
13866;SDS011;7003;46.982;15.248;2023-03-17T10:05:08;2.75;;;2.55;;
13866;SDS011;7003;46.982;15.248;2023-03-17T10:07:43;5.00;;;3.50;;
13866;SDS011;7003;46.982;15.248;2023-03-17T10:10:14;3.40;;;2.83;;
13866;SDS011;7003;46.982;15.248;2023-03-17T10:12:48;5.07;;;3.08;;
13866;SDS011;7003;46.982;15.248;2023-03-17T10:15:29;3.67;;;3.05;;
13866;SDS011;7003;46.982;15.248;2023-03-17T10:18:07;5.38;;;3.85;;
13866;SDS011;7003;46.982;15.248;2023-03-17T10:20:36;5.32;;;4.00;;
13866;SDS011;7003;46.982;15.248;2023-03-17T10:23:18;5.85;;;3.13;;
13866;SDS011;7003;46.982;15.248;2023-03-17T10:25:50;3.97;;;3.28;;
13866;SDS011;7003;46.982;15.248;2023-03-17T10:28:22;7.22;;;5.13;;
13866;SDS011;7003;46.982;15.248;2023-03-17T10:30:56;4.70;;;3.75;;
13866;SDS011;7003;46.982;15.248;2023-03-17T10:33:32;4.97;;;3.40;;
13866;SDS011;7003;46.982;15.248;2023-03-17T10:36:05;3.90;;;2.97;;
13866;SDS011;7003;46.982;15.248;2023-03-17T10:38:37;4.15;;;3.45;;
13866;SDS011;7003;46.982;15.248;2023-03-17T10:41:08;8.75;;;3.67;;
13866;SDS011;7003;46.982;15.248;2023-03-17T10:43:42;7.65;;;3.83;;
13866;SDS011;7003;46.982;15.248;2023-03-17T10:46:16;5.22;;;3.55;;
13866;SDS011;7003;46.982;15.248;2023-03-17T10:48:50;7.25;;;3.67;;
13866;SDS011;7003;46.982;15.248;2023-03-17T10:51:26;5.22;;;3.97;;
13866;SDS011;7003;46.982;15.248;2023-03-17T10:54:00;4.18;;;3.10;;
13866;SDS011;7003;46.982;15.248;2023-03-17T10:56:35;4.20;;;3.70;;
13866;SDS011;7003;46.982;15.248;2023-03-17T10:59:14;3.20;;;2.72;;
13866;SDS011;7003;46.982;15.248;2023-03-17T11:01:46;3.75;;;3.28;;
13866;SDS011;7003;46.982;15.248;2023-03-17T11:04:28;4.07;;;3.47;;
13866;SDS011;7003;46.982;15.248;2023-03-17T11:06:59;4.68;;;3.25;;
13866;SDS011;7003;46.982;15.248;2023-03-17T11:09:38;4.90;;;3.92;;
13866;SDS011;7003;46.982;15.248;2023-03-17T11:12:16;6.05;;;4.47;;
13866;SDS011;7003;46.982;15.248;2023-03-17T11:14:49;4.10;;;3.17;;
13866;SDS011;7003;46.982;15.248;2023-03-17T11:17:17;5.60;;;3.97;;
13866;SDS011;7003;46.982;15.248;2023-03-17T11:19:51;4.75;;;3.85;;
13866;SDS011;7003;46.982;15.248;2023-03-17T11:22:25;4.72;;;3.78;;
13866;SDS011;7003;46.982;15.248;2023-03-17T11:25:07;3.95;;;3.55;;
13866;SDS011;7003;46.982;15.248;2023-03-17T11:27:39;8.60;;;3.65;;
13866;SDS011;7003;46.982;15.248;2023-03-17T11:30:15;3.92;;;3.20;;
13866;SDS011;7003;46.982;15.248;2023-03-17T11:32:58;6.40;;;4.22;;
13866;SDS011;7003;46.982;15.248;2023-03-17T11:35:37;7.82;;;3.95;;
13866;SDS011;7003;46.982;15.248;2023-03-17T11:38:18;4.15;;;3.75;;
13866;SDS011;7003;46.982;15.248;2023-03-17T11:41:00;4.45;;;3.97;;
13866;SDS011;7003;46.982;15.248;2023-03-17T11:43:52;8.27;;;4.57;;
13866;SDS011;7003;46.982;15.248;2023-03-17T11:46:38;4.43;;;3.42;;
13866;SDS011;7003;46.982;15.248;2023-03-17T11:49:17;5.50;;;3.83;;
13866;SDS011;7003;46.982;15.248;2023-03-17T11:51:49;3.75;;;3.33;;
13866;SDS011;7003;46.982;15.248;2023-03-17T11:54:30;4.32;;;3.63;;
13866;SDS011;7003;46.982;15.248;2023-03-17T11:57:09;5.82;;;4.22;;
13866;SDS011;7003;46.982;15.248;2023-03-17T11:59:43;5.07;;;3.55;;
13866;SDS011;7003;46.982;15.248;2023-03-17T12:02:19;4.85;;;3.58;;
13866;SDS011;7003;46.982;15.248;2023-03-17T12:04:54;3.97;;;3.15;;
13866;SDS011;7003;46.982;15.248;2023-03-17T12:07:29;5.75;;;3.75;;
13866;SDS011;7003;46.982;15.248;2023-03-17T12:10:05;5.28;;;4.10;;
13866;SDS011;7003;46.982;15.248;2023-03-17T12:12:45;4.47;;;3.90;;
13866;SDS011;7003;46.982;15.248;2023-03-17T12:15:18;4.47;;;3.35;;
13866;SDS011;7003;46.982;15.248;2023-03-17T12:17:55;3.63;;;3.30;;
13866;SDS011;7003;46.982;15.248;2023-03-17T12:20:29;3.75;;;3.13;;
13866;SDS011;7003;46.982;15.248;2023-03-17T12:23:04;3.42;;;3.00;;
13866;SDS011;7003;46.982;15.248;2023-03-17T12:25:39;2.90;;;2.33;;
13866;SDS011;7003;46.982;15.248;2023-03-17T12:28:19;4.22;;;3.33;;
13866;SDS011;7003;46.982;15.248;2023-03-17T12:30:56;4.35;;;3.00;;
13866;SDS011;7003;46.982;15.248;2023-03-17T12:33:32;4.88;;;3.10;;
13866;SDS011;7003;46.982;15.248;2023-03-17T12:36:09;3.65;;;2.50;;
13866;SDS011;7003;46.982;15.248;2023-03-17T12:38:44;4.20;;;2.53;;
13866;SDS011;7003;46.982;15.248;2023-03-17T12:41:22;4.00;;;3.28;;
13866;SDS011;7003;46.982;15.248;2023-03-17T12:44:03;9.70;;;4.18;;
13866;SDS011;7003;46.982;15.248;2023-03-17T12:46:56;3.75;;;3.15;;
13866;SDS011;7003;46.982;15.248;2023-03-17T12:49:57;2.97;;;2.70;;
13866;SDS011;7003;46.982;15.248;2023-03-17T12:55:56;3.63;;;3.17;;
13866;SDS011;7003;46.982;15.248;2023-03-17T12:58:30;4.32;;;3.58;;
13866;SDS011;7003;46.982;15.248;2023-03-17T13:03:56;4.10;;;2.78;;
13866;SDS011;7003;46.982;15.248;2023-03-17T13:06:34;5.55;;;3.90;;
13866;SDS011;7003;46.982;15.248;2023-03-17T13:09:26;3.20;;;2.90;;
13866;SDS011;7003;46.982;15.248;2023-03-17T13:12:02;2.97;;;2.67;;
13866;SDS011;7003;46.982;15.248;2023-03-17T13:14:39;5.55;;;3.53;;
13866;SDS011;7003;46.982;15.248;2023-03-17T13:20:12;3.75;;;3.35;;
13866;SDS011;7003;46.982;15.248;2023-03-17T13:23:00;5.28;;;3.33;;
13866;SDS011;7003;46.982;15.248;2023-03-17T13:25:33;4.28;;;2.97;;
13866;SDS011;7003;46.982;15.248;2023-03-17T13:28:15;4.15;;;3.30;;
13866;SDS011;7003;46.982;15.248;2023-03-17T13:30:54;3.47;;;3.17;;
13866;SDS011;7003;46.982;15.248;2023-03-17T13:33:34;4.13;;;2.65;;
13866;SDS011;7003;46.982;15.248;2023-03-17T13:36:31;4.65;;;3.45;;
13866;SDS011;7003;46.982;15.248;2023-03-17T13:39:17;3.67;;;3.17;;
13866;SDS011;7003;46.982;15.248;2023-03-17T13:42:06;3.78;;;3.05;;
13866;SDS011;7003;46.982;15.248;2023-03-17T13:45:03;3.25;;;2.95;;
13866;SDS011;7003;46.982;15.248;2023-03-17T13:47:39;3.03;;;2.58;;
13866;SDS011;7003;46.982;15.248;2023-03-17T13:50:11;3.20;;;2.90;;
13866;SDS011;7003;46.982;15.248;2023-03-17T13:52:44;5.85;;;3.17;;
13866;SDS011;7003;46.982;15.248;2023-03-17T13:55:31;2.90;;;2.67;;
13866;SDS011;7003;46.982;15.248;2023-03-17T13:58:21;3.30;;;2.90;;
13866;SDS011;7003;46.982;15.248;2023-03-17T14:00:55;3.25;;;2.72;;
13866;SDS011;7003;46.982;15.248;2023-03-17T14:03:29;6.50;;;3.63;;
13866;SDS011;7003;46.982;15.248;2023-03-17T14:06:04;7.38;;;4.18;;
13866;SDS011;7003;46.982;15.248;2023-03-17T14:08:34;3.75;;;2.58;;
13866;SDS011;7003;46.982;15.248;2023-03-17T14:11:05;5.43;;;2.95;;
13866;SDS011;7003;46.982;15.248;2023-03-17T14:13:44;4.18;;;3.42;;
13866;SDS011;7003;46.982;15.248;2023-03-17T14:16:20;5.18;;;3.10;;
13866;SDS011;7003;46.982;15.248;2023-03-17T14:18:54;3.92;;;3.58;;
13866;SDS011;7003;46.982;15.248;2023-03-17T14:21:30;4.10;;;3.10;;
13866;SDS011;7003;46.982;15.248;2023-03-17T14:24:11;8.90;;;3.45;;
13866;SDS011;7003;46.982;15.248;2023-03-17T14:26:45;3.97;;;3.58;;
13866;SDS011;7003;46.982;15.248;2023-03-17T14:29:14;3.40;;;2.85;;
13866;SDS011;7003;46.982;15.248;2023-03-17T14:31:45;4.22;;;3.15;;
13866;SDS011;7003;46.982;15.248;2023-03-17T14:34:15;6.38;;;4.28;;
13866;SDS011;7003;46.982;15.248;2023-03-17T14:36:48;3.45;;;2.97;;
13866;SDS011;7003;46.982;15.248;2023-03-17T14:39:19;3.58;;;3.03;;
13866;SDS011;7003;46.982;15.248;2023-03-17T14:41:56;4.32;;;3.72;;
13866;SDS011;7003;46.982;15.248;2023-03-17T14:44:27;6.07;;;3.70;;
13866;SDS011;7003;46.982;15.248;2023-03-17T14:47:03;5.32;;;3.30;;
13866;SDS011;7003;46.982;15.248;2023-03-17T14:49:34;5.38;;;3.17;;
13866;SDS011;7003;46.982;15.248;2023-03-17T14:52:14;7.78;;;3.45;;
13866;SDS011;7003;46.982;15.248;2023-03-17T14:54:48;3.03;;;2.72;;
13866;SDS011;7003;46.982;15.248;2023-03-17T14:57:20;7.28;;;4.93;;
13866;SDS011;7003;46.982;15.248;2023-03-17T14:59:56;5.13;;;3.28;;
13866;SDS011;7003;46.982;15.248;2023-03-17T15:02:27;5.20;;;4.18;;
13866;SDS011;7003;46.982;15.248;2023-03-17T15:05:04;4.95;;;3.72;;
13866;SDS011;7003;46.982;15.248;2023-03-17T15:07:48;4.15;;;3.50;;
13866;SDS011;7003;46.982;15.248;2023-03-17T15:10:17;6.20;;;3.65;;
13866;SDS011;7003;46.982;15.248;2023-03-17T15:12:50;3.97;;;3.63;;
13866;SDS011;7003;46.982;15.248;2023-03-17T15:15:28;4.53;;;4.07;;
13866;SDS011;7003;46.982;15.248;2023-03-17T15:17:58;4.30;;;3.20;;
13866;SDS011;7003;46.982;15.248;2023-03-17T15:20:32;4.55;;;4.15;;
13866;SDS011;7003;46.982;15.248;2023-03-17T15:23:12;4.40;;;3.72;;
13866;SDS011;7003;46.982;15.248;2023-03-17T15:25:42;4.38;;;3.78;;
13866;SDS011;7003;46.982;15.248;2023-03-17T15:28:14;8.20;;;3.88;;